createdAt,value
2018-09-29T00:00:48.023Z,2.10
2018-09-29T00:03:22.233Z,2.07
2018-09-29T00:05:57.186Z,2.17
2018-09-29T00:08:31.492Z,1.87
2018-09-29T00:11:05.721Z,2.47
2018-09-29T00:13:40.037Z,2.07
2018-09-29T00:16:14.299Z,2.10
2018-09-29T00:18:49.348Z,2.20
2018-09-29T00:21:24.630Z,2.10
2018-09-29T00:23:58.982Z,2.43
2018-09-29T00:26:33.297Z,2.00
2018-09-29T00:29:07.635Z,2.20
2018-09-29T00:31:41.757Z,2.10
2018-09-29T00:34:16.055Z,2.17
2018-09-29T00:36:50.339Z,2.00
2018-09-29T00:39:24.799Z,2.10
2018-09-29T00:41:59.713Z,2.17
2018-09-29T00:44:33.985Z,2.00
2018-09-29T00:47:09.024Z,2.10
2018-09-29T00:49:43.982Z,1.80
2018-09-29T00:52:19.038Z,1.80
2018-09-29T00:54:54.079Z,2.00
2018-09-29T00:57:28.333Z,1.87
2018-09-29T01:00:02.566Z,2.10
2018-09-29T01:02:38.291Z,1.93
2018-09-29T01:05:12.452Z,2.20
2018-09-29T01:07:46.762Z,1.87
2018-09-29T01:10:21.019Z,1.50
2018-09-29T01:12:56.016Z,1.70
2018-09-29T01:15:30.174Z,2.27
2018-09-29T01:18:04.722Z,1.70
2018-09-29T01:20:39.565Z,1.67
2018-09-29T01:23:13.900Z,1.60
2018-09-29T01:25:48.912Z,1.83
2018-09-29T01:28:23.047Z,1.80
2018-09-29T01:30:57.424Z,1.73
2018-09-29T01:33:32.453Z,1.83
2018-09-29T01:36:06.737Z,2.07
2018-09-29T01:38:41.320Z,1.60
2018-09-29T01:41:15.549Z,1.73
2018-09-29T01:43:49.858Z,1.70
2018-09-29T01:46:24.158Z,1.77
2018-09-29T01:48:58.458Z,1.80
2018-09-29T01:51:32.706Z,1.83
2018-09-29T01:54:07.953Z,2.00
2018-09-29T01:56:42.882Z,2.23
2018-09-29T01:59:17.183Z,1.67
2018-09-29T02:01:51.419Z,1.67
2018-09-29T02:04:25.721Z,1.70
2018-09-29T02:07:00.091Z,1.60
2018-09-29T02:09:34.349Z,2.07
2018-09-29T02:12:09.390Z,1.80
2018-09-29T02:14:44.405Z,1.73
2018-09-29T02:17:18.500Z,1.60
2018-09-29T02:19:52.719Z,2.57
2018-09-29T02:22:28.019Z,2.10
2018-09-29T02:25:02.270Z,1.70
2018-09-29T02:27:36.577Z,2.17
2018-09-29T02:30:11.647Z,1.70
2018-09-29T02:32:45.865Z,1.87
2018-09-29T02:35:20.103Z,1.63
2018-09-29T02:37:54.702Z,2.57
2018-09-29T02:40:28.935Z,1.60
2018-09-29T02:43:03.330Z,1.60
2018-09-29T02:45:37.622Z,1.90
2018-09-29T02:48:12.038Z,1.90
2018-09-29T02:50:46.333Z,1.80
2018-09-29T02:53:20.542Z,1.67
2018-09-29T02:55:54.805Z,1.73
2018-09-29T02:58:29.065Z,1.83
2018-09-29T03:01:04.083Z,1.70
2018-09-29T03:03:39.195Z,2.00
2018-09-29T03:06:13.530Z,1.80
2018-09-29T03:08:47.611Z,1.77
2018-09-29T03:11:21.967Z,1.80
2018-09-29T03:13:56.360Z,1.80
2018-09-29T03:16:30.660Z,2.40
2018-09-29T03:19:04.970Z,2.03
2018-09-29T03:21:39.950Z,1.90
2018-09-29T03:24:14.229Z,1.90
2018-09-29T03:26:48.698Z,2.33
2018-09-29T03:29:22.987Z,1.70
2018-09-29T03:31:57.617Z,1.50
2018-09-29T03:34:31.634Z,1.70
2018-09-29T03:42:39.359Z,1.83
2018-09-29T03:45:17.372Z,1.93
2018-09-29T03:47:55.492Z,2.00
2018-09-29T03:50:33.947Z,1.67
2018-09-29T03:53:16.112Z,1.60
2018-09-29T03:56:02.118Z,1.70
2018-09-29T03:58:44.622Z,1.80
2018-09-29T04:01:22.435Z,1.80
2018-09-29T04:04:01.041Z,1.43
2018-09-29T04:06:44.282Z,2.10
2018-09-29T04:09:21.185Z,1.90
2018-09-29T04:12:15.967Z,1.50
2018-09-29T04:14:58.893Z,1.67
2018-09-29T04:17:39.195Z,2.20
2018-09-29T04:20:19.543Z,1.80
2018-09-29T04:22:59.384Z,2.10
2018-09-29T04:25:36.758Z,1.83
2018-09-29T04:28:13.596Z,1.90
2018-09-29T04:30:55.716Z,1.90
2018-09-29T04:33:46.183Z,2.30
2018-09-29T04:36:29.227Z,1.50
2018-09-29T04:39:07.934Z,1.80
2018-09-29T04:41:46.122Z,1.57
2018-09-29T04:44:22.962Z,1.60
2018-09-29T04:47:01.244Z,1.30
2018-09-29T04:49:37.303Z,1.57
2018-09-29T04:52:15.157Z,1.63
2018-09-29T04:54:58.579Z,1.80
2018-09-29T04:57:38.719Z,1.73
2018-09-29T05:00:36.262Z,2.00
2018-09-29T05:03:14.858Z,2.10
2018-09-29T05:05:53.982Z,1.93
2018-09-29T05:08:38.344Z,1.80
2018-09-29T05:11:22.567Z,1.50
2018-09-29T05:14:03.537Z,1.50
2018-09-29T05:16:45.947Z,1.60
2018-09-29T05:19:26.836Z,1.90
2018-09-29T05:22:08.551Z,1.77
2018-09-29T05:24:54.722Z,1.80
2018-09-29T05:27:40.096Z,1.40
2018-09-29T05:30:20.871Z,2.10
2018-09-29T05:33:03.996Z,1.87
2018-09-29T05:35:42.752Z,1.50
2018-09-29T05:38:21.431Z,1.90
2018-09-29T05:41:00.056Z,1.60
2018-09-29T05:46:25.628Z,1.70
2018-09-29T05:49:05.224Z,1.30
2018-09-29T05:51:39.944Z,1.67
2018-09-29T05:54:17.952Z,1.73
2018-09-29T05:57:01.639Z,1.70
2018-09-29T05:59:46.219Z,1.70
2018-09-29T06:02:24.837Z,2.17
2018-09-29T06:05:09.459Z,1.97
2018-09-29T06:07:52.587Z,2.10
2018-09-29T06:10:29.785Z,1.90
2018-09-29T06:13:08.339Z,1.50
2018-09-29T06:15:42.480Z,1.83
2018-09-29T06:18:16.787Z,1.80
2018-09-29T06:20:53.004Z,1.80
2018-09-29T06:23:28.492Z,1.90
2018-09-29T06:26:03.724Z,2.00
2018-09-29T06:28:38.234Z,1.83
2018-09-29T06:31:13.876Z,1.57
2018-09-29T06:33:49.879Z,2.00
2018-09-29T06:39:25.986Z,2.40
2018-09-29T06:45:00.138Z,2.00
2018-09-29T06:47:34.974Z,1.57
2018-09-29T06:50:11.997Z,1.53
2018-09-29T06:52:41.682Z,1.53
2018-09-29T06:55:09.902Z,2.07
2018-09-29T06:57:38.175Z,1.80
2018-09-29T07:00:06.449Z,1.97
2018-09-29T07:02:34.790Z,1.73
2018-09-29T07:05:03.031Z,1.83
2018-09-29T07:07:31.283Z,1.50
2018-09-29T07:09:59.535Z,1.50
2018-09-29T07:12:27.819Z,1.80
2018-09-29T07:14:56.066Z,2.20
2018-09-29T07:17:24.760Z,1.60
2018-09-29T07:19:53.056Z,1.80
2018-09-29T07:22:21.290Z,2.30
2018-09-29T07:24:49.739Z,2.40
2018-09-29T07:27:17.969Z,2.00
2018-09-29T07:29:46.246Z,1.87
2018-09-29T07:32:14.610Z,2.37
2018-09-29T07:34:42.858Z,2.00
2018-09-29T07:37:11.882Z,1.83
2018-09-29T07:39:40.139Z,1.80
2018-09-29T07:42:08.384Z,1.77
2018-09-29T07:44:36.674Z,1.80
2018-09-29T07:47:05.689Z,2.30
2018-09-29T07:49:33.982Z,1.87
2018-09-29T07:52:02.251Z,1.90
2018-09-29T07:54:30.563Z,2.00
2018-09-29T07:56:58.830Z,2.27
2018-09-29T07:59:27.846Z,1.80
2018-09-29T08:01:56.880Z,1.80
2018-09-29T08:04:25.137Z,1.90
2018-09-29T08:06:54.150Z,1.80
2018-09-29T08:09:22.419Z,1.67
2018-09-29T08:11:50.679Z,1.77
2018-09-29T08:14:19.722Z,1.90
2018-09-29T08:16:47.990Z,1.90
2018-09-29T08:19:16.310Z,2.40
2018-09-29T08:21:45.316Z,1.50
2018-09-29T08:24:13.583Z,1.60
2018-09-29T08:26:42.624Z,1.70
2018-09-29T08:29:10.889Z,1.73
2018-09-29T08:31:39.138Z,2.17
2018-09-29T08:34:07.918Z,2.03
2018-09-29T08:36:37.036Z,1.60
2018-09-29T08:39:06.329Z,1.83
2018-09-29T08:41:34.592Z,1.70
2018-09-29T08:44:03.667Z,1.90
2018-09-29T08:46:31.921Z,1.87
2018-09-29T08:49:00.902Z,1.80
2018-09-29T08:51:29.143Z,1.80
2018-09-29T08:53:57.451Z,1.70
2018-09-29T08:56:25.768Z,1.93
2018-09-29T08:58:54.407Z,1.57
2018-09-29T09:01:22.706Z,1.73
2018-09-29T09:03:51.040Z,2.07
2018-09-29T09:08:54.239Z,2.10
2018-09-29T09:11:22.519Z,1.83
2018-09-29T09:13:50.912Z,1.70
2018-09-29T09:16:19.097Z,1.63
2018-09-29T09:18:47.375Z,1.87
2018-09-29T09:21:15.618Z,1.57
2018-09-29T09:23:43.962Z,1.93
2018-09-29T09:26:12.725Z,1.60
2018-09-29T09:28:41.016Z,1.70
2018-09-29T09:31:10.042Z,1.63
2018-09-29T09:33:38.307Z,1.53
2018-09-29T09:36:06.564Z,1.53
2018-09-29T09:38:35.596Z,1.80
2018-09-29T09:41:03.867Z,1.70
2018-09-29T09:43:32.206Z,2.23
2018-09-29T09:46:00.407Z,1.83
2018-09-29T09:48:29.417Z,2.00
2018-09-29T09:50:57.750Z,1.63
2018-09-29T09:53:26.064Z,1.73
2018-09-29T09:55:54.353Z,1.60
2018-09-29T09:58:22.615Z,1.90
2018-09-29T10:00:50.866Z,1.70
2018-09-29T10:03:19.146Z,1.73
2018-09-29T10:05:48.155Z,1.50
2018-09-29T10:08:16.453Z,1.60
2018-09-29T10:10:44.698Z,1.60
2018-09-29T10:13:12.939Z,1.60
2018-09-29T10:15:41.972Z,1.67
2018-09-29T10:18:10.253Z,1.27
2018-09-29T10:20:38.513Z,1.63
2018-09-29T10:23:06.795Z,1.57
2018-09-29T10:25:35.079Z,1.60
2018-09-29T10:28:03.343Z,1.60
2018-09-29T10:30:31.608Z,1.57
2018-09-29T10:32:59.893Z,1.70
2018-09-29T10:35:28.228Z,1.53
2018-09-29T10:37:56.532Z,1.40
2018-09-29T10:40:25.543Z,1.40
2018-09-29T10:42:53.811Z,1.43
2018-09-29T10:45:22.067Z,1.37
2018-09-29T10:47:51.118Z,1.63
2018-09-29T10:50:19.357Z,1.47
2018-09-29T10:52:47.625Z,1.57
2018-09-29T10:55:16.829Z,1.30
2018-09-29T10:57:45.165Z,1.23
2018-09-29T11:00:14.141Z,1.50
2018-09-29T11:02:42.420Z,1.27
2018-09-29T11:05:10.854Z,1.20
2018-09-29T11:07:38.928Z,1.07
2018-09-29T11:10:07.301Z,1.40
2018-09-29T11:12:35.541Z,1.33
2018-09-29T11:15:04.552Z,1.30
2018-09-29T11:17:32.809Z,1.30
2018-09-29T11:20:01.983Z,1.07
2018-09-29T11:22:30.232Z,1.43
2018-09-29T11:24:58.548Z,1.23
2018-09-29T11:27:26.946Z,1.40
2018-09-29T11:29:55.971Z,1.30
2018-09-29T11:32:24.259Z,1.27
2018-09-29T11:34:52.515Z,1.40
2018-09-29T11:37:20.910Z,1.47
2018-09-29T11:39:49.985Z,1.27
2018-09-29T11:42:18.279Z,1.00
2018-09-29T11:44:46.544Z,1.33
2018-09-29T11:47:14.833Z,1.20
2018-09-29T11:49:43.068Z,1.60
2018-09-29T11:52:11.300Z,1.60
2018-09-29T11:54:39.563Z,1.10
2018-09-29T11:57:07.839Z,1.23
2018-09-29T11:59:36.103Z,1.20
2018-09-29T12:02:05.139Z,1.67
2018-09-29T12:04:33.518Z,1.40
2018-09-29T12:07:02.583Z,1.37
2018-09-29T12:09:31.015Z,1.10
2018-09-29T12:11:59.286Z,1.50
2018-09-29T12:14:28.293Z,1.30
2018-09-29T12:16:56.581Z,1.43
2018-09-29T12:19:24.842Z,1.20
2018-09-29T12:21:53.110Z,1.60
2018-09-29T12:24:21.386Z,1.30
2018-09-29T12:26:49.639Z,1.30
2018-09-29T12:29:18.680Z,1.33
2018-09-29T12:31:46.932Z,1.63
2018-09-29T12:34:15.194Z,1.30
2018-09-29T12:36:44.277Z,1.40
2018-09-29T12:39:12.475Z,1.07
2018-09-29T12:41:40.813Z,1.43
2018-09-29T12:44:09.017Z,1.40
2018-09-29T12:46:37.279Z,1.20
2018-09-29T12:49:06.310Z,1.37
2018-09-29T12:51:34.630Z,1.30
2018-09-29T12:54:02.826Z,1.50
2018-09-29T12:56:31.850Z,1.40
2018-09-29T12:59:00.173Z,1.30
2018-09-29T13:01:28.366Z,1.47
2018-09-29T13:03:57.401Z,1.13
2018-09-29T13:06:25.692Z,1.40
2018-09-29T13:08:53.952Z,1.10
2018-09-29T13:11:22.246Z,1.47
2018-09-29T13:13:50.518Z,1.30
2018-09-29T13:16:18.860Z,1.20
2018-09-29T13:18:47.090Z,1.30
2018-09-29T13:21:15.382Z,1.33
2018-09-29T13:23:44.422Z,1.40
2018-09-29T13:26:12.686Z,1.30
2018-09-29T13:28:40.928Z,0.93
2018-09-29T13:31:09.950Z,1.50
2018-09-29T13:33:38.228Z,1.53
2018-09-29T13:36:06.492Z,1.13
2018-09-29T13:38:34.747Z,1.10
2018-09-29T13:41:03.783Z,1.30
2018-09-29T13:43:32.157Z,1.30
2018-09-29T13:46:00.508Z,1.20
2018-09-29T13:48:28.699Z,1.33
2018-09-29T13:50:56.983Z,1.57
2018-09-29T13:53:25.232Z,1.40
2018-09-29T13:55:53.490Z,1.30
2018-09-29T13:58:22.542Z,1.23
2018-09-29T14:00:50.805Z,1.30
2018-09-29T14:03:19.799Z,1.00
2018-09-29T14:05:48.047Z,1.23
2018-09-29T14:08:16.313Z,1.57
2018-09-29T14:10:44.565Z,1.30
2018-09-29T14:13:13.609Z,1.60
2018-09-29T14:15:41.861Z,1.13
2018-09-29T14:18:10.110Z,1.47
2018-09-29T14:20:39.185Z,1.60
2018-09-29T14:23:07.435Z,1.30
2018-09-29T14:25:37.545Z,1.30
2018-09-29T14:28:05.914Z,1.20
2018-09-29T14:30:34.159Z,1.20
2018-09-29T14:33:03.190Z,1.40
2018-09-29T14:35:31.538Z,1.60
2018-09-29T14:38:00.002Z,1.40
2018-09-29T14:40:29.019Z,1.20
2018-09-29T14:42:57.263Z,1.63
2018-09-29T14:45:27.230Z,1.23
2018-09-29T14:47:55.528Z,1.30
2018-09-29T14:50:23.791Z,1.40
2018-09-29T14:52:52.051Z,1.53
2018-09-29T14:55:20.273Z,1.30
2018-09-29T14:57:49.354Z,1.23
2018-09-29T15:00:17.635Z,1.63
2018-09-29T15:02:45.879Z,1.53
2018-09-29T15:05:14.965Z,1.67
2018-09-29T15:07:43.204Z,1.43
2018-09-29T15:10:11.472Z,1.40
2018-09-29T15:12:39.747Z,1.43
2018-09-29T15:15:07.973Z,1.30
2018-09-29T15:17:36.224Z,1.37
2018-09-29T15:20:04.496Z,1.40
2018-09-29T15:22:33.106Z,1.67
2018-09-29T15:25:01.354Z,1.60
2018-09-29T15:27:29.641Z,1.47
2018-09-29T15:29:57.911Z,1.50
2018-09-29T15:32:26.151Z,1.60
2018-09-29T15:34:55.177Z,1.20
2018-09-29T15:37:23.447Z,1.20
2018-09-29T15:39:51.733Z,1.60
2018-09-29T15:42:20.003Z,1.43
2018-09-29T15:44:49.215Z,1.17
2018-09-29T15:47:17.426Z,1.67
2018-09-29T15:49:45.698Z,1.20
2018-09-29T15:52:13.942Z,1.23
2018-09-29T15:54:42.983Z,1.40
2018-09-29T15:57:11.242Z,1.20
2018-09-29T15:59:39.764Z,1.50
2018-09-29T16:02:08.035Z,1.43
2018-09-29T16:04:36.318Z,1.53
2018-09-29T16:07:04.695Z,1.60
2018-09-29T16:09:33.785Z,1.27
2018-09-29T16:12:02.037Z,1.17
2018-09-29T16:14:31.791Z,1.20
2018-09-29T16:16:59.996Z,1.27
2018-09-29T16:19:28.362Z,1.30
2018-09-29T16:21:56.615Z,1.20
2018-09-29T16:24:24.904Z,1.27
2018-09-29T16:26:53.149Z,1.40
2018-09-29T16:29:21.415Z,1.30
2018-09-29T16:31:49.709Z,1.40
2018-09-29T16:34:17.977Z,1.30
2018-09-29T16:36:46.221Z,1.53
2018-09-29T16:39:15.297Z,1.60
2018-09-29T16:41:43.650Z,1.37
2018-09-29T16:44:11.931Z,1.10
2018-09-29T16:46:40.965Z,1.30
2018-09-29T16:49:09.987Z,1.30
2018-09-29T16:51:38.242Z,1.40
2018-09-29T16:54:06.534Z,1.63
2018-09-29T16:56:34.836Z,1.30
2018-09-29T16:59:03.113Z,1.40
2018-09-29T17:01:31.453Z,1.57
2018-09-29T17:03:59.805Z,1.50
2018-09-29T17:06:28.019Z,1.43
2018-09-29T17:08:56.666Z,2.00
2018-09-29T17:11:26.312Z,1.80
2018-09-29T17:13:54.547Z,2.03
2018-09-29T17:16:23.600Z,1.40
2018-09-29T17:18:51.861Z,1.37
2018-09-29T17:21:20.163Z,1.70
2018-09-29T17:23:49.183Z,1.37
2018-09-29T17:26:18.220Z,1.60
2018-09-29T17:28:46.487Z,1.70
2018-09-29T17:31:14.742Z,1.63
2018-09-29T17:33:42.994Z,1.73
2018-09-29T17:36:12.050Z,1.90
2018-09-29T17:38:40.328Z,2.10
2018-09-29T17:41:08.562Z,2.20
2018-09-29T17:43:36.825Z,2.30
2018-09-29T17:46:05.843Z,2.23
2018-09-29T17:48:34.111Z,1.90
2018-09-29T17:51:02.558Z,4.13
2018-09-29T17:53:30.874Z,7.67
2018-09-29T17:55:59.694Z,5.10
2018-09-29T17:58:29.474Z,3.67
2018-09-29T18:00:57.741Z,4.60
2018-09-29T18:03:25.986Z,6.13
2018-09-29T18:05:55.026Z,4.77
2018-09-29T18:08:23.322Z,3.50
2018-09-29T18:10:51.833Z,3.83
2018-09-29T18:13:20.136Z,3.63
2018-09-29T18:15:48.378Z,3.70
2018-09-29T18:18:16.614Z,3.37
2018-09-29T18:20:44.947Z,2.90
2018-09-29T18:23:14.323Z,2.23
2018-09-29T18:25:42.568Z,2.10
2018-09-29T18:28:11.545Z,2.10
2018-09-29T18:30:39.798Z,1.97
2018-09-29T18:33:08.828Z,1.90
2018-09-29T18:35:37.108Z,2.00
2018-09-29T18:38:05.674Z,1.70
2018-09-29T18:40:33.926Z,1.90
2018-09-29T18:43:02.172Z,1.90
2018-09-29T18:45:31.414Z,2.30
2018-09-29T18:47:59.678Z,2.17
2018-09-29T18:50:31.855Z,2.13
2018-09-29T18:53:00.130Z,2.00
2018-09-29T18:55:28.382Z,1.87
2018-09-29T18:57:57.410Z,1.93
2018-09-29T19:00:25.662Z,2.43
2018-09-29T19:02:53.924Z,2.03
2018-09-29T19:05:22.986Z,2.40
2018-09-29T19:07:51.242Z,2.47
2018-09-29T19:10:19.533Z,1.70
2018-09-29T19:12:47.854Z,2.30
2018-09-29T19:15:16.043Z,2.20
2018-09-29T19:17:44.430Z,1.73
2018-09-29T19:20:12.690Z,2.03
2018-09-29T19:22:40.938Z,2.23
2018-09-29T19:25:09.984Z,2.03
2018-09-29T19:27:38.231Z,1.50
2018-09-29T19:30:07.224Z,2.17
2018-09-29T19:32:35.666Z,2.03
2018-09-29T19:35:05.310Z,2.10
2018-09-29T19:37:33.578Z,1.87
2018-09-29T19:40:02.633Z,2.10
2018-09-29T19:42:30.908Z,2.17
2018-09-29T19:44:59.965Z,2.03
2018-09-29T19:47:28.797Z,2.07
2018-09-29T19:49:57.060Z,2.10
2018-09-29T19:52:25.359Z,2.13
2018-09-29T19:54:53.614Z,2.90
2018-09-29T19:57:21.884Z,2.50
2018-09-29T19:59:50.900Z,2.77
2018-09-29T20:02:20.239Z,2.20
2018-09-29T20:04:48.510Z,2.60
2018-09-29T20:07:16.792Z,2.37
2018-09-29T20:09:45.051Z,2.57
2018-09-29T20:12:13.470Z,2.47
2018-09-29T20:14:41.746Z,2.80
2018-09-29T20:17:10.745Z,2.77
2018-09-29T20:19:39.030Z,2.20
2018-09-29T20:22:07.291Z,2.70
2018-09-29T20:24:35.626Z,2.30
2018-09-29T20:27:03.968Z,2.40
2018-09-29T20:29:32.218Z,2.70
2018-09-29T20:32:01.978Z,2.27
2018-09-29T20:34:30.254Z,2.70
2018-09-29T20:37:00.268Z,2.40
2018-09-29T20:39:28.555Z,2.27
2018-09-29T20:41:57.650Z,2.20
2018-09-29T20:44:25.929Z,2.17
2018-09-29T20:46:54.197Z,1.80
2018-09-29T20:49:22.593Z,2.00
2018-09-29T20:51:50.799Z,2.10
2018-09-29T20:54:19.138Z,1.83
2018-09-29T20:56:47.394Z,2.20
2018-09-29T20:59:16.416Z,2.17
2018-09-29T21:01:44.728Z,1.90
2018-09-29T21:04:13.036Z,2.00
2018-09-29T21:06:41.302Z,1.93
2018-09-29T21:09:11.094Z,2.10
2018-09-29T21:11:43.015Z,2.10
2018-09-29T21:14:22.940Z,2.23
2018-09-29T21:16:54.135Z,2.37
2018-09-29T21:19:23.993Z,2.30
2018-09-29T21:21:52.321Z,2.20
2018-09-29T21:24:20.563Z,2.37
2018-09-29T21:26:48.814Z,2.37
2018-09-29T21:29:17.840Z,2.33
2018-09-29T21:31:46.088Z,2.30
2018-09-29T21:34:14.388Z,2.63
2018-09-29T21:36:43.493Z,2.43
2018-09-29T21:39:11.749Z,2.60
2018-09-29T21:41:40.027Z,2.53
2018-09-29T21:44:09.069Z,2.33
2018-09-29T21:46:38.109Z,2.23
2018-09-29T21:49:06.358Z,2.40
2018-09-29T21:51:34.681Z,2.00
2018-09-29T21:54:03.240Z,2.17
2018-09-29T21:56:31.486Z,2.40
2018-09-29T21:59:00.499Z,2.20
2018-09-29T22:01:28.753Z,2.47
2018-09-29T22:03:57.766Z,2.23
2018-09-29T22:06:26.039Z,2.10
2018-09-29T22:08:54.282Z,2.30
2018-09-29T22:11:23.298Z,2.30
2018-09-29T22:13:51.626Z,2.30
2018-09-29T22:16:20.164Z,2.17
2018-09-29T22:18:48.398Z,2.10
2018-09-29T22:21:16.662Z,2.17
2018-09-29T22:23:45.227Z,2.30
2018-09-29T22:26:14.044Z,2.30
2018-09-29T22:28:42.289Z,2.17
2018-09-29T22:31:11.306Z,2.30
2018-09-29T22:33:39.559Z,2.20
2018-09-29T22:36:08.653Z,2.23
2018-09-29T22:38:36.906Z,2.73
2018-09-29T22:41:05.164Z,2.17
2018-09-29T22:43:33.446Z,2.30
2018-09-29T22:46:01.678Z,2.33
2018-09-29T22:48:29.942Z,2.30
2018-09-29T22:50:58.206Z,2.87
2018-09-29T22:53:26.429Z,2.53
2018-09-29T22:55:54.716Z,2.37
2018-09-29T22:58:22.996Z,2.10
2018-09-29T23:00:51.270Z,1.90
2018-09-29T23:03:19.524Z,1.97
2018-09-29T23:05:47.778Z,2.23
2018-09-29T23:08:16.803Z,2.00
2018-09-29T23:10:45.057Z,2.40
2018-09-29T23:13:14.071Z,1.80
2018-09-29T23:15:43.260Z,2.03
2018-09-29T23:18:11.537Z,1.97
2018-09-29T23:20:40.538Z,2.00
2018-09-29T23:23:08.798Z,2.23
2018-09-29T23:25:38.057Z,2.10
2018-09-29T23:28:06.295Z,2.73
2018-09-29T23:30:34.541Z,2.10
2018-09-29T23:33:03.610Z,2.47
2018-09-29T23:35:31.852Z,3.07
2018-09-29T23:38:00.882Z,2.27
2018-09-29T23:40:29.111Z,2.70
2018-09-29T23:42:57.358Z,3.03
2018-09-29T23:45:25.616Z,2.67
2018-09-29T23:47:58.071Z,3.30
2018-09-29T23:50:27.921Z,3.40
2018-09-29T23:52:56.211Z,3.57
2018-09-29T23:55:24.530Z,3.33
2018-09-29T23:57:52.777Z,3.00
